• Join FlightAware (Why Join?)
  • Login
  • US Flag 
02:51PM EDT


 

Airport Tracker/Info


-or-


 

Live Flight TrackerFlight Track Log ✈ DAL6035 ✈ 22-Apr-2013 ✈ KLGA - KMHT

Flight Track Log - Related Links

Times and Time Zones

All times are in EDT time to prevent confusion due to time zone crossing. See the DAL6035 flight status page for this flight to view local times or setup timezone preferences in your user account.

Time Position Orientation Groundspeed Altitude Reporting Facility
EDT Latitude Longitude Course Direction KTS MPH feet Rate Location/Type
12:58PM 40.7667 -73.8500 27° Northeast 164 189 1,100  Level New York TRACON
12:59PM 40.7167 -73.8167 153° Southeast 195 224 3,500 2,340 Climbing New York TRACON
01:01PM 41.1159 -73.5958 28° Northeast  Level FlightAware Approximate
01:01PM 40.8133 -73.7400 31° Northeast 221 254 7,700  Level Boston Center
01:02PM 41.2016 -73.5236 33° Northeast  Level FlightAware Approximate
01:02PM 40.8825 -73.6972 25° Northeast 242 278 9,900  Level Boston Center
01:03PM 41.2879 -73.4526 27° Northeast  Level FlightAware Approximate
01:03PM 40.9600 -73.6494 25° Northeast 274 315 11,100  Level Boston Center
01:04PM 41.0483 -73.5933 26° Northeast 331 381 12,300 1,380 Climbing Boston Center
01:05PM 41.1383 -73.5342 26° Northeast 357 411 13,900 1,920 Climbing Boston Center
01:06PM 41.2306 -73.4750 26° Northeast 362 417 16,200 1,500 Climbing Boston Center
01:07PM 41.3228 -73.4186 25° Northeast 362 417 17,000 300 Climbing Boston Center
01:08PM 41.4172 -73.3369 33° Northeast 388 447 16,900  Descending Boston Center
01:09PM 41.5014 -73.2494 38° Northeast 412 474 17,000 60 Climbing Boston Center
01:10PM 41.6000 -73.1453 38° Northeast 418 481 17,100  Climbing Boston Center
01:11PM 41.6839 -73.0572 38° Northeast 418 481 17,100 -60 Level Boston Center
01:12PM 41.7844 -72.9553 37° Northeast 418 481 17,000 -60 Descending Boston Center
01:13PM 41.8764 -72.8639 36° Northeast 412 474 17,000 -780 Level Boston Center
01:14PM 41.9728 -72.7808 33° Northeast 412 474 15,500 -1,020 Descending Boston Center
01:15PM 42.0708 -72.7225 24° Northeast 396 456 15,000 -300 Descending Boston Center
01:16PM 42.1647 -72.6669 24° Northeast 369 425 15,000  Level Boston Center
01:17PM 42.2586 -72.6281 17° North 359 413 15,000  Level Boston Center
01:18PM 42.3544 -72.6200 North 359 413 15,000  Level Boston Center
01:19PM 42.4628 -72.6089 North 372 428 15,000  Level Boston Center
01:20PM 42.5692 -72.5811 11° North 382 440 15,000 -60 Level Boston Center
01:21PM 42.6339 -72.4683 52° Northeast 355 409 14,900 -900 Descending Boston Center
01:22PM 42.6797 -72.3356 65° Northeast 357 411 13,200 -1,800 Descending Boston Center
01:23PM 42.7233 -72.2111 64° Northeast 357 411 11,400 -1,560 Descending Boston Center
01:24PM 42.7647 -72.0922 65° Northeast 333 383 10,100 -1,500 Descending Boston Center
01:25PM 42.7914 -72.0100 66° East 282 325 8,500 -1,740 Descending Boston Center
01:26PM 42.8244 -71.9078 66° East 262 302 6,700 -1,500 Descending Boston Center
01:27PM 42.8303 -71.8342 84° East 242 278 5,500 -1,380 Descending Boston Center
01:28PM 42.8381 -71.7408 83° East 227 261 4,000 -1,200 Descending Boston Center
01:29PM 42.8436 -71.6642 84° East 221 254 3,100 -900 Descending Boston Center